Time,TemperatureF,DewpointF,PressureIn,WindDirection,WindDirectionDegrees,WindSpeedMPH,WindSpeedGustMPH,Humidity,HourlyPrecipIn,Conditions,Clouds,dailyrainin,SoftwareType,DateUTC
2013-08-28 00:05:00,67.5,44.0,31.55,East,82,2.0,6.0,43,0.00,,,0.00,weatherlink.com 1.10,2013-08-28 06:05:00,
2013-08-28 00:20:00,67.6,44.0,31.55,East,92,9.0,10.0,42,0.00,,,0.00,weatherlink.com 1.10,2013-08-28 06:20:00,
2013-08-28 00:35:00,68.3,44.0,31.55,ESE,105,8.0,15.0,41,0.00,,,0.00,weatherlink.com 1.10,2013-08-28 06:35:00,
2013-08-28 00:50:00,67.5,44.0,31.55,East,96,6.0,12.0,43,0.00,,,0.00,weatherlink.com 1.10,2013-08-28 06:50:00,
2013-08-28 01:05:00,67.3,44.0,31.55,ENE,78,9.0,10.0,43,0.00,,,0.00,weatherlink.com 1.10,2013-08-28 07:05:00,
2013-08-28 01:20:00,66.8,45.0,31.56,ESE,109,10.0,12.0,45,0.00,,,0.00,weatherlink.com 1.10,2013-08-28 07:20:00,
2013-08-28 01:35:00,66.4,45.0,31.56,ESE,119,9.0,13.0,46,0.00,,,0.00,weatherlink.com 1.10,2013-08-28 07:35:00,
2013-08-28 01:50:00,67.2,44.0,31.56,SE,129,5.0,11.0,44,0.00,,,0.00,weatherlink.com 1.10,2013-08-28 07:50:00,
2013-08-28 02:05:00,67.9,44.0,31.55,East,97,7.0,10.0,42,0.00,,,0.00,weatherlink.com 1.10,2013-08-28 08:05:00,
2013-08-28 02:20:00,67.7,44.0,31.56,East,100,8.0,10.0,42,0.00,,,0.00,weatherlink.com 1.10,2013-08-28 08:20:00,
2013-08-28 02:35:00,67.3,43.0,31.55,ESE,107,7.0,9.0,42,0.00,,,0.00,weatherlink.com 1.10,2013-08-28 08:35:00,
2013-08-28 02:50:00,67.2,43.0,31.56,ESE,105,4.0,9.0,42,0.00,,,0.00,weatherlink.com 1.10,2013-08-28 08:50:00,
2013-08-28 03:05:00,66.8,44.0,31.55,ESE,121,4.0,9.0,44,0.00,,,0.00,weatherlink.com 1.10,2013-08-28 09:05:00,
2013-08-28 03:20:00,65.9,44.0,31.55,ESE,115,3.0,7.0,45,0.00,,,0.00,weatherlink.com 1.10,2013-08-28 09:20:00,
2013-08-28 03:35:00,65.3,44.0,31.55,East,94,5.0,7.0,46,0.00,,,0.00,weatherlink.com 1.10,2013-08-28 09:35:00,
2013-08-28 03:50:00,64.8,44.0,31.55,ESE,109,1.0,5.0,47,0.00,,,0.00,weatherlink.com 1.10,2013-08-28 09:50:00,
2013-08-28 04:05:00,64.7,44.0,31.55,SE,138,1.0,4.0,47,0.00,,,0.00,weatherlink.com 1.10,2013-08-28 10:05:00,
2013-08-28 04:20:00,64.3,45.0,31.55,SE,138,1.0,3.0,49,0.00,,,0.00,weatherlink.com 1.10,2013-08-28 10:20:00,
2013-08-28 04:35:00,64.1,44.0,31.56,SE,125,3.0,4.0,49,0.00,,,0.00,weatherlink.com 1.10,2013-08-28 10:35:00,
2013-08-28 04:51:00,63.6,45.0,31.55,East,80,2.0,4.0,51,0.00,,,0.00,weatherlink.com 1.10,2013-08-28 10:51:00,
2013-08-28 05:06:00,63.4,45.0,31.55,East,94,2.0,5.0,51,0.00,,,0.00,weatherlink.com 1.10,2013-08-28 11:06:00,
2013-08-28 05:21:00,63.5,45.0,31.55,ESE,111,0.0,3.0,51,0.00,,,0.00,weatherlink.com 1.10,2013-08-28 11:21:00,
2013-08-28 05:36:00,63.1,44.0,31.55,SE,129,2.0,3.0,51,0.00,,,0.00,weatherlink.com 1.10,2013-08-28 11:36:00,
2013-08-28 05:51:00,62.9,44.0,31.55,SE,138,0.0,1.0,51,0.00,,,0.00,weatherlink.com 1.10,2013-08-28 11:51:00,
2013-08-28 06:06:00,63.3,44.0,31.55,SE,126,2.0,3.0,50,0.00,,,0.00,weatherlink.com 1.10,2013-08-28 12:06:00,
2013-08-28 06:21:00,63.5,44.0,31.55,SE,142,5.0,5.0,50,0.00,,,0.00,weatherlink.com 1.10,2013-08-28 12:21:00,
2013-08-28 06:36:00,63.1,44.0,31.56,East,90,2.0,5.0,50,0.00,,,0.00,weatherlink.com 1.10,2013-08-28 12:36:00,
2013-08-28 06:51:00,63.2,44.0,31.56,ESE,109,2.0,3.0,50,0.00,,,0.00,weatherlink.com 1.10,2013-08-28 12:51:00,
2013-08-28 07:06:00,62.6,45.0,31.56,ESE,105,0.0,3.0,52,0.00,,,0.00,weatherlink.com 1.10,2013-08-28 13:06:00,
2013-08-28 07:21:00,62.9,45.0,31.57,ESE,106,1.0,2.0,52,0.00,,,0.00,weatherlink.com 1.10,2013-08-28 13:21:00,
2013-08-28 07:36:00,63.3,45.0,31.57,ESE,115,1.0,2.0,51,0.00,,,0.00,weatherlink.com 1.10,2013-08-28 13:36:00,
2013-08-28 07:51:00,64.4,45.0,31.58,ESE,115,0.0,1.0,49,0.00,,,0.00,weatherlink.com 1.10,2013-08-28 13:51:00,
2013-08-28 08:06:00,62.2,46.0,31.59,NW,314,12.0,14.0,55,0.00,,,0.00,weatherlink.com 1.10,2013-08-28 14:06:00,
2013-08-28 08:21:00,64.4,45.0,31.60,WNW,286,2.0,11.0,49,0.00,,,0.00,weatherlink.com 1.10,2013-08-28 14:21:00,
2013-08-28 08:36:00,64.1,44.0,31.61,NW,321,4.0,14.0,49,0.00,,,0.00,weatherlink.com 1.10,2013-08-28 14:36:00,
2013-08-28 08:51:00,65.1,44.0,31.61,WNW,288,2.0,13.0,47,0.00,,,0.00,weatherlink.com 1.10,2013-08-28 14:51:00,
2013-08-28 09:06:00,64.4,45.0,31.62,WNW,296,10.0,18.0,49,0.00,,,0.00,weatherlink.com 1.10,2013-08-28 15:06:00,
2013-08-28 09:21:00,62.8,45.0,31.64,WNW,282,1.0,7.0,52,0.00,,,0.00,weatherlink.com 1.10,2013-08-28 15:21:00,
2013-08-28 09:36:00,63.4,44.0,31.64,North,355,11.0,15.0,50,0.00,,,0.00,weatherlink.com 1.10,2013-08-28 15:36:00,
2013-08-28 09:51:00,64.6,44.0,31.64,WNW,295,12.0,19.0,48,0.00,,,0.00,weatherlink.com 1.10,2013-08-28 15:51:00,
2013-08-28 10:06:00,64.3,45.0,31.65,NW,313,14.0,23.0,49,0.00,,,0.00,weatherlink.com 1.10,2013-08-28 16:06:00,
2013-08-28 10:21:00,64.8,45.0,31.67,NW,306,8.0,26.0,49,0.00,,,0.00,weatherlink.com 1.10,2013-08-28 16:21:00,
2013-08-28 10:36:00,63.7,46.0,31.68,NW,309,18.0,20.0,53,0.00,,,0.00,weatherlink.com 1.10,2013-08-28 16:36:00,
2013-08-28 10:51:00,62.9,46.0,31.68,NW,315,10.0,20.0,55,0.00,,,0.00,weatherlink.com 1.10,2013-08-28 16:51:00,
2013-08-28 11:21:00,63.5,45.0,31.69,ENE,59,0.0,10.0,52,0.00,,,0.00,weatherlink.com 1.10,2013-08-28 17:21:00,
2013-08-28 11:36:00,64.1,48.0,31.69,South,173,2.0,8.0,56,0.00,,,0.00,weatherlink.com 1.10,2013-08-28 17:36:00,
2013-08-28 11:51:00,61.6,49.0,31.69,East,88,7.0,9.0,63,0.00,,,0.00,weatherlink.com 1.10,2013-08-28 17:51:00,
2013-08-28 12:22:00,59.0,50.0,31.65,NNE,13,7.0,9.0,73,0.00,,,0.00,weatherlink.com 1.10,2013-08-28 18:22:00,
2013-08-28 12:37:00,60.8,50.0,31.66,SW,214,2.0,11.0,68,0.00,,,0.00,weatherlink.com 1.10,2013-08-28 18:37:00,
2013-08-28 12:52:00,62.9,49.0,31.67,SE,126,10.0,13.0,61,0.00,,,0.00,weatherlink.com 1.10,2013-08-28 18:52:00,
2013-08-28 13:07:00,63.1,50.0,31.66,SE,144,10.0,14.0,62,0.00,,,0.00,weatherlink.com 1.10,2013-08-28 19:07:00,
2013-08-28 13:22:00,64.3,50.0,31.66,SE,140,12.0,17.0,61,0.00,,,0.00,weatherlink.com 1.10,2013-08-28 19:22:00,
2013-08-28 13:37:00,64.0,51.0,31.66,SE,130,15.0,18.0,64,0.00,,,0.00,weatherlink.com 1.10,2013-08-28 19:37:00,
2013-08-28 13:52:00,64.9,51.0,31.66,ESE,103,13.0,20.0,62,0.00,,,0.00,weatherlink.com 1.10,2013-08-28 19:52:00,
2013-08-28 14:07:00,66.1,51.0,31.65,ESE,123,14.0,18.0,58,0.00,,,0.00,weatherlink.com 1.10,2013-08-28 20:07:00,
2013-08-28 14:22:00,67.5,51.0,31.64,ESE,103,5.0,18.0,56,0.00,,,0.00,weatherlink.com 1.10,2013-08-28 20:22:00,
2013-08-28 14:37:00,68.5,51.0,31.63,SE,132,12.0,16.0,54,0.00,,,0.00,weatherlink.com 1.10,2013-08-28 20:37:00,
2013-08-28 14:52:00,68.8,49.0,31.63,SE,136,8.0,17.0,50,0.00,,,0.00,weatherlink.com 1.10,2013-08-28 20:52:00,
2013-08-28 15:07:00,69.8,49.0,31.62,SE,132,10.0,17.0,48,0.00,,,0.00,weatherlink.com 1.10,2013-08-28 21:07:00,
2013-08-28 15:22:00,71.4,49.0,31.61,SE,145,8.0,16.0,45,0.00,,,0.00,weatherlink.com 1.10,2013-08-28 21:22:00,
2013-08-28 15:37:00,71.5,50.0,31.61,SE,136,9.0,16.0,46,0.00,,,0.00,weatherlink.com 1.10,2013-08-28 21:37:00,
2013-08-28 15:52:00,71.4,50.0,31.61,SE,144,13.0,16.0,47,0.00,,,0.00,weatherlink.com 1.10,2013-08-28 21:52:00,
2013-08-28 16:07:00,72.1,50.0,31.61,South,169,6.0,15.0,46,0.00,,,0.00,weatherlink.com 1.10,2013-08-28 22:07:00,
2013-08-28 16:22:00,73.6,51.0,31.61,SSE,165,8.0,12.0,45,0.00,,,0.00,weatherlink.com 1.10,2013-08-28 22:22:00,
2013-08-28 16:37:00,73.0,50.0,31.60,ESE,109,5.0,15.0,45,0.00,,,0.00,weatherlink.com 1.10,2013-08-28 22:37:00,
2013-08-28 16:52:00,73.9,51.0,31.60,SSE,153,5.0,13.0,44,0.00,,,0.00,weatherlink.com 1.10,2013-08-28 22:52:00,
2013-08-28 17:07:00,74.1,51.0,31.60,South,186,9.0,12.0,45,0.00,,,0.00,weatherlink.com 1.10,2013-08-28 23:07:00,
2013-08-28 17:22:00,74.0,51.0,31.60,South,177,0.0,11.0,44,0.00,,,0.00,weatherlink.com 1.10,2013-08-28 23:22:00,
2013-08-28 17:37:00,74.4,51.0,31.60,ESE,121,5.0,9.0,44,0.00,,,0.00,weatherlink.com 1.10,2013-08-28 23:37:00,
2013-08-28 17:52:00,74.5,50.0,31.60,SSE,161,5.0,9.0,43,0.00,,,0.00,weatherlink.com 1.10,2013-08-28 23:52:00,
2013-08-28 18:07:00,74.4,50.0,31.59,SSE,155,1.0,6.0,43,0.00,,,0.00,weatherlink.com 1.10,2013-08-29 00:07:00,
2013-08-28 18:22:00,74.8,50.0,31.59,SE,144,0.0,7.0,42,0.00,,,0.00,weatherlink.com 1.10,2013-08-29 00:22:00,
2013-08-28 18:37:00,74.6,50.0,31.59,SSE,148,2.0,6.0,42,0.00,,,0.00,weatherlink.com 1.10,2013-08-29 00:37:00,
2013-08-28 18:52:00,74.5,50.0,31.59,SE,130,1.0,7.0,42,0.00,,,0.00,weatherlink.com 1.10,2013-08-29 00:52:00,
2013-08-28 19:07:00,75.0,50.0,31.59,SE,133,1.0,2.0,41,0.00,,,0.00,weatherlink.com 1.10,2013-08-29 01:07:00,
2013-08-28 19:22:00,74.6,50.0,31.59,SSE,148,0.0,3.0,42,0.00,,,0.00,weatherlink.com 1.10,2013-08-29 01:22:00,
2013-08-28 19:37:00,74.0,50.0,31.59,SSE,151,0.0,1.0,43,0.00,,,0.00,weatherlink.com 1.10,2013-08-29 01:37:00,
2013-08-28 19:52:00,73.6,50.0,31.59,SSE,150,1.0,2.0,43,0.00,,,0.00,weatherlink.com 1.10,2013-08-29 01:52:00,
2013-08-28 20:07:00,73.3,49.0,31.59,East,82,1.0,4.0,43,0.00,,,0.00,weatherlink.com 1.10,2013-08-29 02:07:00,
2013-08-28 20:22:00,73.1,49.0,31.59,East,82,0.0,0.0,43,0.00,,,0.00,weatherlink.com 1.10,2013-08-29 02:22:00,
2013-08-28 20:37:00,72.7,49.0,31.59,East,82,0.0,0.0,44,0.00,,,0.00,weatherlink.com 1.10,2013-08-29 02:37:00,
2013-08-28 20:52:00,72.6,49.0,31.60,East,82,1.0,2.0,44,0.00,,,0.00,weatherlink.com 1.10,2013-08-29 02:52:00,
2013-08-28 21:07:00,72.4,50.0,31.61,ENE,70,0.0,4.0,45,0.00,,,0.00,weatherlink.com 1.10,2013-08-29 03:07:00,
2013-08-28 21:22:00,72.7,50.0,31.61,ENE,71,1.0,3.0,45,0.00,,,0.00,weatherlink.com 1.10,2013-08-29 03:22:00,
2013-08-28 21:37:00,72.7,50.0,31.61,ENE,71,0.0,0.0,45,0.00,,,0.00,weatherlink.com 1.10,2013-08-29 03:37:00,
2013-08-28 21:52:00,72.0,49.0,31.61,North,9,1.0,3.0,45,0.00,,,0.00,weatherlink.com 1.10,2013-08-29 03:52:00,
2013-08-28 22:07:00,72.1,48.0,31.62,North,9,0.0,1.0,43,0.00,,,0.00,weatherlink.com 1.10,2013-08-29 04:07:00,
2013-08-28 22:22:00,71.7,49.0,31.62,North,9,0.0,0.0,44,0.00,,,0.00,weatherlink.com 1.10,2013-08-29 04:22:00,
2013-08-28 22:37:00,70.8,48.0,31.63,North,9,0.0,0.0,45,0.00,,,0.00,weatherlink.com 1.10,2013-08-29 04:37:00,
2013-08-28 22:53:00,70.8,48.0,31.63,North,9,0.0,0.0,45,0.00,,,0.00,weatherlink.com 1.10,2013-08-29 04:53:00,
2013-08-28 23:08:00,71.5,48.0,31.64,North,11,0.0,1.0,44,0.00,,,0.00,weatherlink.com 1.10,2013-08-29 05:08:00,
2013-08-28 23:23:00,71.3,49.0,31.64,East,97,2.0,3.0,45,0.00,,,0.00,weatherlink.com 1.10,2013-08-29 05:23:00,
2013-08-28 23:38:00,70.4,49.0,31.64,ENE,70,3.0,4.0,46,0.00,,,0.00,weatherlink.com 1.10,2013-08-29 05:38:00,
2013-08-28 23:53:00,71.1,49.0,31.64,ENE,71,0.0,3.0,45,0.00,,,0.00,weatherlink.com 1.10,2013-08-29 05:53:00,